sensor_id;sensor_type;location;lat;lon;timestamp;P1;durP1;ratioP1;P2;durP2;ratioP2
51692;SDS011;37777;53.066;21.638;2024-01-27T00:00:03;47.10;;;42.45;;
51692;SDS011;37777;53.066;21.638;2024-01-27T00:07:05;49.58;;;45.08;;
51692;SDS011;37777;53.066;21.638;2024-01-27T00:14:07;36.70;;;32.97;;
51692;SDS011;37777;53.066;21.638;2024-01-27T00:21:08;36.42;;;31.10;;
51692;SDS011;37777;53.066;21.638;2024-01-27T00:28:10;40.67;;;35.33;;
51692;SDS011;37777;53.066;21.638;2024-01-27T00:35:11;38.30;;;34.35;;
51692;SDS011;37777;53.066;21.638;2024-01-27T00:42:15;42.83;;;38.35;;
51692;SDS011;37777;53.066;21.638;2024-01-27T00:49:17;42.35;;;38.55;;
51692;SDS011;37777;53.066;21.638;2024-01-27T00:56:19;42.45;;;37.08;;
51692;SDS011;37777;53.066;21.638;2024-01-27T01:03:21;36.40;;;32.05;;
51692;SDS011;37777;53.066;21.638;2024-01-27T01:10:22;40.85;;;36.00;;
51692;SDS011;37777;53.066;21.638;2024-01-27T01:17:24;36.88;;;32.70;;
51692;SDS011;37777;53.066;21.638;2024-01-27T01:24:25;37.72;;;32.60;;
51692;SDS011;37777;53.066;21.638;2024-01-27T01:31:27;41.63;;;31.92;;
51692;SDS011;37777;53.066;21.638;2024-01-27T01:38:28;38.03;;;33.72;;
51692;SDS011;37777;53.066;21.638;2024-01-27T01:45:30;38.30;;;34.70;;
51692;SDS011;37777;53.066;21.638;2024-01-27T01:52:31;43.92;;;39.80;;
51692;SDS011;37777;53.066;21.638;2024-01-27T01:59:33;52.55;;;47.70;;
51692;SDS011;37777;53.066;21.638;2024-01-27T02:06:35;42.03;;;37.90;;
51692;SDS011;37777;53.066;21.638;2024-01-27T02:13:37;32.97;;;30.30;;
51692;SDS011;37777;53.066;21.638;2024-01-27T02:20:38;33.10;;;29.77;;
51692;SDS011;37777;53.066;21.638;2024-01-27T02:27:40;28.75;;;22.27;;
51692;SDS011;37777;53.066;21.638;2024-01-27T02:34:41;30.67;;;26.80;;
51692;SDS011;37777;53.066;21.638;2024-01-27T02:41:43;28.25;;;24.70;;
51692;SDS011;37777;53.066;21.638;2024-01-27T02:48:44;29.42;;;26.50;;
51692;SDS011;37777;53.066;21.638;2024-01-27T02:55:47;34.55;;;27.98;;
51692;SDS011;37777;53.066;21.638;2024-01-27T03:02:48;28.55;;;25.67;;
51692;SDS011;37777;53.066;21.638;2024-01-27T03:09:50;23.02;;;19.10;;
51692;SDS011;37777;53.066;21.638;2024-01-27T03:16:51;22.52;;;20.42;;
51692;SDS011;37777;53.066;21.638;2024-01-27T03:23:53;31.52;;;26.42;;
51692;SDS011;37777;53.066;21.638;2024-01-27T03:30:54;24.15;;;21.95;;
51692;SDS011;37777;53.066;21.638;2024-01-27T03:37:56;30.85;;;26.50;;
51692;SDS011;37777;53.066;21.638;2024-01-27T03:44:57;29.88;;;27.05;;
51692;SDS011;37777;53.066;21.638;2024-01-27T03:51:59;27.73;;;25.33;;
51692;SDS011;37777;53.066;21.638;2024-01-27T03:59:00;27.42;;;24.95;;
51692;SDS011;37777;53.066;21.638;2024-01-27T04:06:01;26.77;;;21.13;;
51692;SDS011;37777;53.066;21.638;2024-01-27T04:13:04;22.63;;;20.40;;
51692;SDS011;37777;53.066;21.638;2024-01-27T04:20:06;22.80;;;21.25;;
51692;SDS011;37777;53.066;21.638;2024-01-27T04:27:08;29.85;;;27.20;;
51692;SDS011;37777;53.066;21.638;2024-01-27T04:34:10;27.42;;;25.38;;
51692;SDS011;37777;53.066;21.638;2024-01-27T04:41:11;27.13;;;24.95;;
51692;SDS011;37777;53.066;21.638;2024-01-27T04:48:13;27.90;;;24.98;;
51692;SDS011;37777;53.066;21.638;2024-01-27T04:55:17;35.22;;;25.73;;
51692;SDS011;37777;53.066;21.638;2024-01-27T05:02:19;29.73;;;26.83;;
51692;SDS011;37777;53.066;21.638;2024-01-27T05:09:20;28.23;;;25.55;;
51692;SDS011;37777;53.066;21.638;2024-01-27T05:16:22;28.83;;;25.80;;
51692;SDS011;37777;53.066;21.638;2024-01-27T05:23:23;39.70;;;27.48;;
51692;SDS011;37777;53.066;21.638;2024-01-27T05:30:24;31.25;;;25.52;;
51692;SDS011;37777;53.066;21.638;2024-01-27T05:37:26;37.83;;;26.20;;
51692;SDS011;37777;53.066;21.638;2024-01-27T05:44:27;34.65;;;27.80;;
51692;SDS011;37777;53.066;21.638;2024-01-27T05:59:50;31.92;;;29.13;;
51692;SDS011;37777;53.066;21.638;2024-01-27T06:06:52;47.75;;;28.80;;
51692;SDS011;37777;53.066;21.638;2024-01-27T06:13:54;54.90;;;34.05;;
51692;SDS011;37777;53.066;21.638;2024-01-27T06:20:55;44.40;;;32.67;;
51692;SDS011;37777;53.066;21.638;2024-01-27T06:27:57;32.53;;;29.38;;
51692;SDS011;37777;53.066;21.638;2024-01-27T06:34:58;43.88;;;30.48;;
51692;SDS011;37777;53.066;21.638;2024-01-27T06:42:00;29.42;;;26.63;;
51692;SDS011;37777;53.066;21.638;2024-01-27T06:49:01;31.85;;;27.48;;
51692;SDS011;37777;53.066;21.638;2024-01-27T06:56:04;28.67;;;26.25;;
51692;SDS011;37777;53.066;21.638;2024-01-27T07:03:05;31.50;;;28.75;;
51692;SDS011;37777;53.066;21.638;2024-01-27T07:10:09;34.80;;;31.50;;
51692;SDS011;37777;53.066;21.638;2024-01-27T07:17:11;35.38;;;32.47;;
51692;SDS011;37777;53.066;21.638;2024-01-27T07:24:12;31.08;;;28.20;;
51692;SDS011;37777;53.066;21.638;2024-01-27T07:31:14;30.20;;;27.02;;
51692;SDS011;37777;53.066;21.638;2024-01-27T07:38:17;44.58;;;32.97;;
51692;SDS011;37777;53.066;21.638;2024-01-27T07:45:18;42.38;;;34.60;;
51692;SDS011;37777;53.066;21.638;2024-01-27T08:00:51;43.88;;;35.45;;
51692;SDS011;37777;53.066;21.638;2024-01-27T08:07:53;40.58;;;32.17;;
51692;SDS011;37777;53.066;21.638;2024-01-27T08:14:54;44.28;;;30.67;;
51692;SDS011;37777;53.066;21.638;2024-01-27T08:30:31;38.53;;;30.63;;
51692;SDS011;37777;53.066;21.638;2024-01-27T08:37:32;36.45;;;32.83;;
51692;SDS011;37777;53.066;21.638;2024-01-27T08:44:39;34.25;;;30.83;;
51692;SDS011;37777;53.066;21.638;2024-01-27T08:51:41;30.20;;;27.23;;
51692;SDS011;37777;53.066;21.638;2024-01-27T08:58:43;31.80;;;29.08;;
51692;SDS011;37777;53.066;21.638;2024-01-27T09:22:28;36.58;;;33.30;;
51692;SDS011;37777;53.066;21.638;2024-01-27T09:29:30;36.22;;;32.88;;
51692;SDS011;37777;53.066;21.638;2024-01-27T09:36:32;40.67;;;36.70;;
51692;SDS011;37777;53.066;21.638;2024-01-27T09:43:33;39.35;;;36.00;;
51692;SDS011;37777;53.066;21.638;2024-01-27T09:50:36;37.28;;;33.83;;
51692;SDS011;37777;53.066;21.638;2024-01-27T09:57:38;32.45;;;29.63;;
51692;SDS011;37777;53.066;21.638;2024-01-27T10:13:09;29.85;;;26.70;;
51692;SDS011;37777;53.066;21.638;2024-01-27T10:20:16;37.70;;;34.85;;
51692;SDS011;37777;53.066;21.638;2024-01-27T10:27:21;47.70;;;44.10;;
51692;SDS011;37777;53.066;21.638;2024-01-27T10:42:44;56.20;;;52.10;;
51692;SDS011;37777;53.066;21.638;2024-01-27T10:49:47;41.40;;;38.47;;
51692;SDS011;37777;53.066;21.638;2024-01-27T11:12:32;29.05;;;26.52;;
51692;SDS011;37777;53.066;21.638;2024-01-27T11:28:16;26.05;;;24.05;;
51692;SDS011;37777;53.066;21.638;2024-01-27T11:35:17;26.85;;;24.90;;
51692;SDS011;37777;53.066;21.638;2024-01-27T11:42:19;25.50;;;23.83;;
51692;SDS011;37777;53.066;21.638;2024-01-27T11:49:21;28.15;;;25.85;;
51692;SDS011;37777;53.066;21.638;2024-01-27T11:56:23;29.10;;;27.15;;
51692;SDS011;37777;53.066;21.638;2024-01-27T12:03:24;29.35;;;27.38;;
51692;SDS011;37777;53.066;21.638;2024-01-27T12:10:26;36.80;;;34.15;;
51692;SDS011;37777;53.066;21.638;2024-01-27T12:17:28;35.40;;;32.95;;
51692;SDS011;37777;53.066;21.638;2024-01-27T12:24:33;30.65;;;28.30;;
51692;SDS011;37777;53.066;21.638;2024-01-27T12:31:34;37.50;;;34.65;;
51692;SDS011;37777;53.066;21.638;2024-01-27T12:38:42;39.92;;;37.13;;
51692;SDS011;37777;53.066;21.638;2024-01-27T12:45:47;41.00;;;38.05;;
51692;SDS011;37777;53.066;21.638;2024-01-27T13:09:33;44.13;;;39.42;;
51692;SDS011;37777;53.066;21.638;2024-01-27T13:16:37;37.00;;;33.70;;
51692;SDS011;37777;53.066;21.638;2024-01-27T13:23:39;35.70;;;32.95;;
51692;SDS011;37777;53.066;21.638;2024-01-27T14:38:24;28.55;;;26.63;;
51692;SDS011;37777;53.066;21.638;2024-01-27T14:45:26;28.92;;;26.83;;
51692;SDS011;37777;53.066;21.638;2024-01-27T14:52:27;27.85;;;25.95;;
51692;SDS011;37777;53.066;21.638;2024-01-27T14:59:29;26.48;;;24.65;;
51692;SDS011;37777;53.066;21.638;2024-01-27T15:14:53;33.25;;;30.83;;
51692;SDS011;37777;53.066;21.638;2024-01-27T15:21:55;35.05;;;32.65;;
51692;SDS011;37777;53.066;21.638;2024-01-27T15:28:56;36.15;;;33.47;;
51692;SDS011;37777;53.066;21.638;2024-01-27T15:35:58;36.95;;;34.38;;
51692;SDS011;37777;53.066;21.638;2024-01-27T15:50:21;43.33;;;40.10;;
51692;SDS011;37777;53.066;21.638;2024-01-27T15:57:27;41.10;;;38.25;;
51692;SDS011;37777;53.066;21.638;2024-01-27T16:04:29;53.45;;;48.67;;
51692;SDS011;37777;53.066;21.638;2024-01-27T16:28:26;39.53;;;36.67;;
51692;SDS011;37777;53.066;21.638;2024-01-27T16:35:29;39.33;;;36.50;;
51692;SDS011;37777;53.066;21.638;2024-01-27T17:07:36;44.22;;;41.33;;
51692;SDS011;37777;53.066;21.638;2024-01-27T17:14:38;45.65;;;42.67;;
51692;SDS011;37777;53.066;21.638;2024-01-27T17:38:25;42.92;;;39.92;;
51692;SDS011;37777;53.066;21.638;2024-01-27T17:45:27;40.40;;;37.40;;
51692;SDS011;37777;53.066;21.638;2024-01-27T17:52:28;37.63;;;34.92;;
51692;SDS011;37777;53.066;21.638;2024-01-27T17:59:30;39.45;;;36.10;;
51692;SDS011;37777;53.066;21.638;2024-01-27T18:14:53;46.17;;;42.17;;
51692;SDS011;37777;53.066;21.638;2024-01-27T18:21:55;37.53;;;34.90;;
51692;SDS011;37777;53.066;21.638;2024-01-27T18:28:59;35.47;;;33.08;;
51692;SDS011;37777;53.066;21.638;2024-01-27T18:36:00;35.60;;;32.85;;
51692;SDS011;37777;53.066;21.638;2024-01-27T18:51:24;30.88;;;28.48;;
51692;SDS011;37777;53.066;21.638;2024-01-27T18:58:26;29.20;;;26.70;;
51692;SDS011;37777;53.066;21.638;2024-01-27T19:05:27;29.13;;;26.77;;
51692;SDS011;37777;53.066;21.638;2024-01-27T19:12:31;30.58;;;28.27;;
51692;SDS011;37777;53.066;21.638;2024-01-27T19:19:32;34.10;;;31.58;;
51692;SDS011;37777;53.066;21.638;2024-01-27T19:26:34;29.10;;;26.98;;
51692;SDS011;37777;53.066;21.638;2024-01-27T19:33:37;30.67;;;27.70;;
51692;SDS011;37777;53.066;21.638;2024-01-27T19:40:38;30.63;;;27.63;;
51692;SDS011;37777;53.066;21.638;2024-01-27T20:04:24;28.33;;;26.17;;
51692;SDS011;37777;53.066;21.638;2024-01-27T20:11:26;29.38;;;26.98;;
51692;SDS011;37777;53.066;21.638;2024-01-27T20:18:37;32.53;;;29.83;;
51692;SDS011;37777;53.066;21.638;2024-01-27T20:25:39;32.58;;;29.58;;
51692;SDS011;37777;53.066;21.638;2024-01-27T20:49:43;38.77;;;34.90;;
51692;SDS011;37777;53.066;21.638;2024-01-27T20:56:45;34.85;;;32.13;;
51692;SDS011;37777;53.066;21.638;2024-01-27T21:03:47;33.42;;;30.88;;
51692;SDS011;37777;53.066;21.638;2024-01-27T22:01:08;29.80;;;27.30;;
51692;SDS011;37777;53.066;21.638;2024-01-27T22:08:09;30.92;;;28.92;;
51692;SDS011;37777;53.066;21.638;2024-01-27T22:40:49;50.17;;;46.08;;
51692;SDS011;37777;53.066;21.638;2024-01-27T22:47:50;42.33;;;38.47;;
51692;SDS011;37777;53.066;21.638;2024-01-27T23:11:54;49.15;;;45.70;;
51692;SDS011;37777;53.066;21.638;2024-01-27T23:18:57;46.15;;;42.42;;
51692;SDS011;37777;53.066;21.638;2024-01-27T23:25:58;41.90;;;38.70;;
51692;SDS011;37777;53.066;21.638;2024-01-27T23:33:00;54.00;;;49.80;;
51692;SDS011;37777;53.066;21.638;2024-01-27T23:56:46;68.95;;;63.10;;
